createdAt,value
2023-02-08T00:00:57.995Z,-0.20
2023-02-08T00:03:25.132Z,-0.20
2023-02-08T00:05:52.167Z,-0.19
2023-02-08T00:08:19.267Z,-0.15
2023-02-08T00:10:46.325Z,-0.17
2023-02-08T00:13:13.397Z,-0.17
2023-02-08T00:15:45.175Z,-0.15
2023-02-08T00:18:12.774Z,-0.19
2023-02-08T00:20:41.943Z,-0.20
2023-02-08T00:23:09.188Z,-0.23
2023-02-08T00:25:36.836Z,-0.26
2023-02-08T00:28:04.866Z,-0.21
2023-02-08T00:30:32.752Z,-0.22
2023-02-08T00:33:01.544Z,-0.24
2023-02-08T00:35:29.204Z,-0.22
2023-02-08T00:37:56.809Z,-0.21
2023-02-08T00:40:24.474Z,-0.22
2023-02-08T00:42:51.692Z,-0.21
2023-02-08T00:45:19.059Z,-0.25
2023-02-08T00:47:46.156Z,-0.25
2023-02-08T00:50:13.271Z,-0.27
2023-02-08T00:52:40.462Z,-0.33
2023-02-08T00:55:08.188Z,-0.30
2023-02-08T00:57:35.974Z,-0.31
2023-02-08T01:00:04.693Z,-0.33
2023-02-08T01:02:31.759Z,-0.39
2023-02-08T01:04:58.940Z,-0.38
2023-02-08T01:07:26.068Z,-0.60
2023-02-08T01:09:53.130Z,-0.45
2023-02-08T01:12:20.292Z,-0.47
2023-02-08T01:14:47.488Z,-0.51
2023-02-08T01:17:14.616Z,-0.65
2023-02-08T01:19:42.644Z,-0.54
2023-02-08T01:22:09.758Z,-0.52
2023-02-08T01:24:36.863Z,-0.50
2023-02-08T01:27:04.101Z,-0.52
2023-02-08T01:29:31.432Z,-0.48
2023-02-08T01:31:59.336Z,-0.45
2023-02-08T01:34:29.952Z,-0.52
2023-02-08T01:36:57.151Z,-0.43
2023-02-08T01:39:24.199Z,-0.48
2023-02-08T01:41:52.076Z,-0.43
2023-02-08T01:44:19.138Z,-0.46
2023-02-08T01:46:51.795Z,-0.50
2023-02-08T01:49:30.344Z,-0.45
2023-02-08T01:52:17.717Z,-0.45
2023-02-08T01:55:06.951Z,-0.51
2023-02-08T01:57:34.093Z,-0.55
2023-02-08T02:00:12.489Z,-0.55
2023-02-08T02:02:45.921Z,-0.57
2023-02-08T02:05:14.194Z,-0.71
2023-02-08T02:07:41.872Z,-0.66
2023-02-08T02:10:26.535Z,-0.65
2023-02-08T02:12:57.320Z,-0.92
2023-02-08T02:15:24.557Z,-0.68
2023-02-08T02:17:51.735Z,-0.63
2023-02-08T02:20:57.342Z,-0.68
2023-02-08T02:23:55.279Z,-0.71
2023-02-08T02:26:32.313Z,-0.73
2023-02-08T02:29:11.571Z,-0.77
2023-02-08T02:31:54.443Z,-0.77
2023-02-08T02:34:42.882Z,-0.76
2023-02-08T02:37:28.612Z,-0.76
2023-02-08T02:40:24.315Z,-1.10
2023-02-08T02:43:25.266Z,-0.83
2023-02-08T02:46:09.134Z,-0.87
2023-02-08T02:49:01.012Z,-0.87
2023-02-08T02:51:46.494Z,-1.00
2023-02-08T02:54:38.835Z,-0.93
2023-02-08T02:57:10.805Z,-0.92
2023-02-08T02:59:39.605Z,-0.97
2023-02-08T03:02:06.803Z,-0.96
2023-02-08T03:04:33.773Z,-0.95
2023-02-08T03:07:19.137Z,-0.95
2023-02-08T03:10:23.268Z,-0.97
2023-02-08T03:12:58.999Z,-0.96
2023-02-08T03:15:37.856Z,-0.95
2023-02-08T03:18:20.386Z,-0.96
2023-02-08T03:21:06.011Z,-0.98
2023-02-08T03:23:39.623Z,-1.05
2023-02-08T03:26:47.717Z,-0.97
2023-02-08T03:29:17.270Z,-0.94
2023-02-08T03:32:01.325Z,-0.94
2023-02-08T03:35:00.353Z,-0.92
2023-02-08T03:37:32.053Z,-0.97
2023-02-08T03:40:14.346Z,-1.00
2023-02-08T03:42:42.259Z,-0.99
2023-02-08T03:45:18.713Z,-1.03
2023-02-08T03:47:49.714Z,-1.03
2023-02-08T03:50:18.647Z,-0.98
2023-02-08T03:52:50.879Z,-0.96
2023-02-08T03:55:28.013Z,-0.99
2023-02-08T03:57:58.891Z,-0.93
2023-02-08T04:00:26.278Z,-0.90
2023-02-08T04:03:20.334Z,-0.87
2023-02-08T04:05:48.195Z,-0.85
2023-02-08T04:08:15.332Z,-0.90
2023-02-08T04:10:42.870Z,-0.84
2023-02-08T04:13:10.157Z,-0.83
2023-02-08T04:15:37.328Z,-0.83
2023-02-08T04:18:04.574Z,-0.81
2023-02-08T04:20:32.297Z,-0.81
2023-02-08T04:22:59.410Z,-0.79
2023-02-08T04:25:26.955Z,-0.80
2023-02-08T04:27:54.896Z,-0.84
2023-02-08T04:30:22.034Z,-0.92
2023-02-08T04:32:49.227Z,-0.82
2023-02-08T04:35:16.341Z,-0.85
2023-02-08T04:37:43.495Z,-0.80
2023-02-08T04:40:11.423Z,-0.80
2023-02-08T04:42:38.589Z,-0.82
2023-02-08T04:45:05.912Z,-0.85
2023-02-08T04:47:33.062Z,-0.87
2023-02-08T04:50:00.088Z,-0.86
2023-02-08T04:52:27.228Z,-0.83
2023-02-08T04:54:54.476Z,-0.85
2023-02-08T04:57:21.640Z,-0.84
2023-02-08T04:59:48.697Z,-0.84
2023-02-08T05:02:15.778Z,-0.86
2023-02-08T05:04:42.775Z,-0.87
2023-02-08T05:07:09.929Z,-0.93
2023-02-08T05:09:37.069Z,-0.93
2023-02-08T05:12:04.599Z,-1.06
2023-02-08T05:14:31.618Z,-0.98
2023-02-08T05:16:58.684Z,-0.98
2023-02-08T05:19:26.699Z,-0.98
2023-02-08T05:21:53.832Z,-1.01
2023-02-08T05:24:20.870Z,-0.95
2023-02-08T05:26:48.027Z,-0.95
2023-02-08T05:29:15.561Z,-0.98
2023-02-08T05:31:42.860Z,-0.95
2023-02-08T05:34:10.107Z,-1.07
2023-02-08T05:36:37.146Z,-0.97
2023-02-08T05:39:05.096Z,-1.01
2023-02-08T05:41:32.213Z,-0.94
2023-02-08T05:43:59.421Z,-0.96
2023-02-08T05:46:26.621Z,-0.97
2023-02-08T05:48:53.750Z,-0.97
2023-02-08T05:51:21.387Z,-0.97
2023-02-08T05:53:48.543Z,-0.95
2023-02-08T05:56:15.617Z,-0.99
2023-02-08T05:58:42.812Z,-0.97
2023-02-08T06:01:11.663Z,-0.98
2023-02-08T06:03:39.748Z,-1.05
2023-02-08T06:06:07.219Z,-0.97
2023-02-08T06:08:34.369Z,-0.93
2023-02-08T06:11:01.378Z,-0.98
2023-02-08T06:13:29.477Z,-1.03
2023-02-08T06:15:56.991Z,-0.90
2023-02-08T06:18:24.180Z,-0.92
2023-02-08T06:20:54.885Z,-0.90
2023-02-08T06:23:23.349Z,-0.85
2023-02-08T06:25:50.519Z,-0.87
2023-02-08T06:28:17.954Z,-0.90
2023-02-08T06:30:45.091Z,-0.90
2023-02-08T06:33:13.918Z,-0.90
2023-02-08T06:35:52.441Z,-0.87
2023-02-08T06:38:20.095Z,-0.86
2023-02-08T06:40:48.093Z,-0.91
2023-02-08T06:43:16.193Z,-0.84
2023-02-08T06:45:46.077Z,-0.82
2023-02-08T06:48:14.043Z,-0.85
2023-02-08T06:50:41.581Z,-0.88
2023-02-08T06:53:08.826Z,-0.84
2023-02-08T06:55:35.957Z,-0.90
2023-02-08T06:58:03.055Z,-0.80
2023-02-08T07:00:30.651Z,-0.85
2023-02-08T07:02:59.100Z,-0.76
2023-02-08T07:05:26.096Z,-0.72
2023-02-08T07:07:53.743Z,-0.65
2023-02-08T07:10:20.885Z,-0.67
2023-02-08T07:12:48.124Z,-0.71
2023-02-08T07:15:15.520Z,-0.77
2023-02-08T07:17:42.610Z,-0.77
2023-02-08T07:20:12.243Z,-0.82
2023-02-08T07:22:40.450Z,-0.84
2023-02-08T07:25:09.093Z,-0.82
2023-02-08T07:27:37.081Z,-0.88
2023-02-08T07:30:05.219Z,-0.87
2023-02-08T07:32:34.675Z,-0.83
2023-02-08T07:35:02.338Z,-0.83
2023-02-08T07:37:29.470Z,-0.80
2023-02-08T07:39:56.866Z,-0.81
2023-02-08T07:42:24.013Z,-0.80
2023-02-08T07:45:06.331Z,-0.81
2023-02-08T07:47:33.456Z,-0.82
2023-02-08T07:50:00.698Z,-0.79
2023-02-08T07:52:27.785Z,-0.82
2023-02-08T07:54:54.826Z,-0.79
2023-02-08T07:57:22.367Z,-0.70
2023-02-08T07:59:49.548Z,-0.72
2023-02-08T08:02:16.666Z,-0.71
2023-02-08T08:04:43.825Z,-0.64
2023-02-08T08:07:11.091Z,-0.65
2023-02-08T08:09:38.341Z,-0.63
2023-02-08T08:12:05.769Z,-0.57
2023-02-08T08:14:32.907Z,-0.56
2023-02-08T08:17:00.084Z,-0.45
2023-02-08T08:19:27.348Z,-0.35
2023-02-08T08:21:54.517Z,-0.30
2023-02-08T08:24:21.825Z,-0.26
2023-02-08T08:26:48.972Z,-0.13
2023-02-08T08:29:16.138Z,-0.06
2023-02-08T08:31:44.134Z,0.12
2023-02-08T08:34:11.369Z,0.29
2023-02-08T08:36:38.458Z,0.44
2023-02-08T08:39:05.534Z,0.70
2023-02-08T08:41:32.664Z,0.82
2023-02-08T08:43:59.769Z,0.85
2023-02-08T08:46:26.900Z,0.97
2023-02-08T08:48:54.022Z,1.09
2023-02-08T08:51:21.138Z,1.33
2023-02-08T08:53:48.259Z,1.43
2023-02-08T08:56:15.344Z,1.51
2023-02-08T08:58:43.836Z,1.64
2023-02-08T09:01:11.200Z,1.78
2023-02-08T09:03:38.291Z,1.95
2023-02-08T09:06:05.642Z,2.07
2023-02-08T09:08:32.711Z,2.09
2023-02-08T09:11:09.043Z,2.15
2023-02-08T09:13:36.915Z,2.30
2023-02-08T09:16:14.138Z,2.36
2023-02-08T09:18:41.966Z,2.42
2023-02-08T09:21:19.253Z,2.41
2023-02-08T09:23:47.930Z,2.52
2023-02-08T09:26:17.054Z,2.52
2023-02-08T09:28:44.508Z,2.64
2023-02-08T09:31:27.963Z,2.64
2023-02-08T09:33:58.174Z,2.65
2023-02-08T09:36:28.041Z,2.70
2023-02-08T09:39:00.472Z,2.70
2023-02-08T09:41:50.057Z,2.54
2023-02-08T09:44:32.225Z,2.54
2023-02-08T09:47:06.228Z,2.50
2023-02-08T09:49:44.123Z,2.46
2023-02-08T09:52:16.523Z,2.42
2023-02-08T09:54:59.849Z,2.31
2023-02-08T09:57:31.828Z,2.21
2023-02-08T10:00:15.065Z,2.20
2023-02-08T10:02:44.542Z,2.22
2023-02-08T10:05:19.848Z,2.22
2023-02-08T10:07:47.616Z,2.24
2023-02-08T10:10:31.338Z,2.25
2023-02-08T10:13:33.017Z,2.27
2023-02-08T10:16:38.464Z,2.34
2023-02-08T10:19:44.292Z,2.33
2023-02-08T10:22:26.356Z,2.37
2023-02-08T10:25:30.848Z,2.31
2023-02-08T10:28:06.437Z,2.25
2023-02-08T10:30:44.982Z,2.22
2023-02-08T10:33:37.587Z,2.22
2023-02-08T10:36:15.353Z,2.24
2023-02-08T10:38:46.687Z,2.26
2023-02-08T10:41:23.484Z,2.12
2023-02-08T10:44:32.396Z,2.08
2023-02-08T10:47:09.246Z,1.95
2023-02-08T10:49:50.334Z,1.81
2023-02-08T10:52:17.564Z,1.91
2023-02-08T10:54:44.737Z,1.92
2023-02-08T10:57:26.116Z,1.96
2023-02-08T11:00:06.638Z,1.98
2023-02-08T11:02:39.708Z,1.95
2023-02-08T11:05:14.612Z,1.96
2023-02-08T11:07:41.965Z,1.89
2023-02-08T11:10:21.110Z,1.92
2023-02-08T11:13:19.802Z,1.91
2023-02-08T11:15:48.529Z,1.91
2023-02-08T11:18:36.046Z,1.93
2023-02-08T11:21:06.610Z,1.98
2023-02-08T11:23:36.999Z,1.93
2023-02-08T11:26:38.456Z,1.91
2023-02-08T11:29:14.670Z,1.88
2023-02-08T11:32:06.633Z,1.84
2023-02-08T11:34:35.387Z,1.78
2023-02-08T11:37:14.055Z,1.72
2023-02-08T11:39:45.382Z,1.66
2023-02-08T11:42:24.887Z,1.59
2023-02-08T11:44:53.950Z,1.59
2023-02-08T11:47:33.193Z,1.58
2023-02-08T11:50:07.732Z,1.64
2023-02-08T11:52:39.482Z,1.64
2023-02-08T11:55:18.772Z,1.69
2023-02-08T11:57:52.045Z,1.69
2023-02-08T12:00:21.558Z,1.68
2023-02-08T12:02:51.257Z,1.60
2023-02-08T12:05:24.741Z,1.65
2023-02-08T12:08:08.544Z,1.67
2023-02-08T12:10:51.077Z,1.72
2023-02-08T12:13:23.733Z,1.78
2023-02-08T12:15:58.647Z,1.83
2023-02-08T12:19:07.473Z,1.91
2023-02-08T12:21:39.901Z,1.93
2023-02-08T12:24:39.919Z,2.05
2023-02-08T12:27:38.982Z,2.09
2023-02-08T12:30:45.375Z,2.03
2023-02-08T12:33:40.154Z,1.90
2023-02-08T12:36:28.648Z,1.82
2023-02-08T12:39:33.272Z,1.77
2023-02-08T12:42:04.982Z,1.75
2023-02-08T12:44:53.491Z,1.68
2023-02-08T12:47:34.626Z,1.66
2023-02-08T12:50:09.405Z,1.63
2023-02-08T12:52:43.077Z,1.61
2023-02-08T12:55:23.879Z,1.62
2023-02-08T12:57:54.797Z,1.65
2023-02-08T13:00:26.082Z,1.69
2023-02-08T13:03:07.125Z,1.74
2023-02-08T13:05:39.851Z,1.69
2023-02-08T13:08:55.975Z,1.77
2023-02-08T13:12:16.637Z,1.83
2023-02-08T13:14:46.246Z,1.82
2023-02-08T13:17:49.189Z,1.72
2023-02-08T13:20:20.576Z,1.49
2023-02-08T13:22:49.900Z,1.59
2023-02-08T13:25:37.399Z,1.38
2023-02-08T13:28:11.792Z,1.59
2023-02-08T13:30:40.898Z,1.57
2023-02-08T13:33:32.151Z,1.50
2023-02-08T13:35:59.812Z,1.51
2023-02-08T13:38:36.212Z,1.48
2023-02-08T13:41:20.023Z,1.43
2023-02-08T13:43:53.471Z,1.36
2023-02-08T13:46:23.321Z,1.36
2023-02-08T13:48:57.028Z,1.31
2023-02-08T13:51:33.049Z,1.37
2023-02-08T13:54:00.520Z,1.39
2023-02-08T13:56:41.596Z,1.35
2023-02-08T13:59:36.699Z,1.31
2023-02-08T14:02:23.272Z,1.26
2023-02-08T14:04:52.937Z,1.23
2023-02-08T14:07:45.234Z,1.20
2023-02-08T14:10:42.029Z,1.19
2023-02-08T14:13:21.520Z,1.17
2023-02-08T14:16:26.879Z,1.14
2023-02-08T14:18:56.750Z,1.12
2023-02-08T14:21:46.536Z,1.09
2023-02-08T14:24:28.824Z,1.04
2023-02-08T14:27:22.134Z,0.99
2023-02-08T14:30:18.572Z,0.89
2023-02-08T14:32:49.089Z,0.89
2023-02-08T14:35:16.155Z,0.86
2023-02-08T14:37:44.617Z,0.83
2023-02-08T14:40:25.160Z,0.76
2023-02-08T14:43:04.904Z,0.70
2023-02-08T14:45:33.551Z,0.65
2023-02-08T14:48:21.666Z,0.62
2023-02-08T14:51:16.738Z,0.45
2023-02-08T14:53:54.512Z,0.51
2023-02-08T14:56:30.890Z,0.49
2023-02-08T14:59:03.018Z,0.44
2023-02-08T15:01:51.590Z,0.35
2023-02-08T15:04:18.760Z,0.29
2023-02-08T15:07:16.258Z,0.20
2023-02-08T15:09:45.443Z,0.13
2023-02-08T15:12:33.966Z,0.09
2023-02-08T15:15:03.608Z,-0.04
2023-02-08T15:17:49.125Z,0.02
2023-02-08T15:20:28.782Z,0.08
2023-02-08T15:23:17.095Z,0.06
2023-02-08T15:25:44.661Z,0.01
2023-02-08T15:28:20.958Z,-0.07
2023-02-08T15:30:58.731Z,-0.07
2023-02-08T15:33:26.780Z,-0.12
2023-02-08T15:36:07.792Z,-0.09
2023-02-08T15:38:38.810Z,-0.11
2023-02-08T15:41:14.303Z,-0.11
2023-02-08T15:43:43.231Z,-0.13
2023-02-08T15:46:22.786Z,-0.14
2023-02-08T15:48:51.223Z,-0.17
2023-02-08T15:51:23.274Z,-0.15
2023-02-08T15:53:56.137Z,-0.17
2023-02-08T15:56:40.043Z,-0.14
2023-02-08T15:59:20.040Z,-0.17
2023-02-08T16:01:48.430Z,-0.13
2023-02-08T16:04:16.162Z,-0.17
2023-02-08T16:06:57.388Z,-0.12
2023-02-08T16:09:28.701Z,-0.13
2023-02-08T16:12:00.226Z,-0.15
2023-02-08T16:14:30.361Z,-0.12
2023-02-08T16:16:58.969Z,-0.12
2023-02-08T16:19:29.791Z,-0.08
2023-02-08T16:22:23.215Z,-0.10
2023-02-08T16:24:51.113Z,-0.12
2023-02-08T16:27:27.740Z,-0.13
2023-02-08T16:29:55.414Z,-0.13
2023-02-08T16:32:33.162Z,-0.14
2023-02-08T16:35:11.175Z,-0.17
2023-02-08T16:37:38.522Z,-0.25
2023-02-08T16:40:27.056Z,-0.16
2023-02-08T16:43:21.860Z,-0.16
2023-02-08T16:46:10.719Z,-0.16
2023-02-08T16:48:46.029Z,-0.21
2023-02-08T16:51:16.970Z,-0.25
2023-02-08T16:53:44.193Z,-0.34
2023-02-08T16:56:11.753Z,-0.33
2023-02-08T16:58:39.428Z,-0.34
2023-02-08T17:01:06.616Z,-0.34
2023-02-08T17:03:33.999Z,-0.32
2023-02-08T17:06:01.550Z,-0.35
2023-02-08T17:08:28.792Z,-0.36
2023-02-08T17:10:59.237Z,-0.39
2023-02-08T17:13:29.866Z,-0.41
2023-02-08T17:15:58.736Z,-0.43
2023-02-08T17:18:25.963Z,-0.52
2023-02-08T17:20:59.566Z,-0.50
2023-02-08T17:23:27.062Z,-0.55
2023-02-08T17:25:54.213Z,-0.57
2023-02-08T17:28:21.844Z,-0.50
2023-02-08T17:30:50.011Z,-0.53
2023-02-08T17:33:20.191Z,-0.50
2023-02-08T17:35:51.459Z,-0.52
2023-02-08T17:38:20.250Z,-0.57
2023-02-08T17:40:48.011Z,-0.64
2023-02-08T17:43:15.226Z,-0.74
2023-02-08T17:45:44.177Z,-0.71
2023-02-08T17:48:13.726Z,-0.77
2023-02-08T17:50:44.216Z,-0.83
2023-02-08T17:53:11.648Z,-0.80
2023-02-08T17:55:42.335Z,-0.81
2023-02-08T17:58:09.555Z,-0.86
2023-02-08T18:00:36.838Z,-0.92
2023-02-08T18:03:04.100Z,-0.92
2023-02-08T18:05:31.305Z,-0.96
2023-02-08T18:07:58.507Z,-1.02
2023-02-08T18:10:26.542Z,-1.07
2023-02-08T18:12:53.748Z,-1.09
2023-02-08T18:15:22.186Z,-1.13
2023-02-08T18:17:53.023Z,-1.19
2023-02-08T18:20:20.234Z,-1.25
2023-02-08T18:22:47.357Z,-1.27
2023-02-08T18:25:16.294Z,-1.32
2023-02-08T18:27:43.605Z,-1.32
2023-02-08T18:30:12.121Z,-1.56
2023-02-08T18:32:39.839Z,-1.40
2023-02-08T18:35:08.183Z,-1.51
2023-02-08T18:37:36.558Z,-1.46
2023-02-08T18:40:07.005Z,-1.51
2023-02-08T18:42:36.045Z,-1.51
2023-02-08T18:45:05.142Z,-1.52
2023-02-08T18:47:32.753Z,-1.54
2023-02-08T18:50:00.005Z,-1.62
2023-02-08T18:52:27.291Z,-1.69
2023-02-08T18:54:54.391Z,-1.65
2023-02-08T18:57:21.584Z,-1.65
2023-02-08T18:59:48.680Z,-1.63
2023-02-08T19:02:22.014Z,-1.70
2023-02-08T19:04:49.650Z,-1.73
2023-02-08T19:07:16.761Z,-1.75
2023-02-08T19:09:44.369Z,-1.86
2023-02-08T19:12:15.642Z,-1.96
2023-02-08T19:14:43.944Z,-1.86
2023-02-08T19:17:14.309Z,-1.86
2023-02-08T19:19:42.543Z,-1.88
2023-02-08T19:22:09.724Z,-1.93
2023-02-08T19:24:36.949Z,-1.94
2023-02-08T19:27:04.175Z,-1.94
2023-02-08T19:29:33.442Z,-2.04
2023-02-08T19:32:00.805Z,-1.97
2023-02-08T19:34:28.001Z,-2.00
2023-02-08T19:36:55.546Z,-2.02
2023-02-08T19:39:26.386Z,-2.02
2023-02-08T19:41:54.358Z,-2.05
2023-02-08T19:44:22.047Z,-2.04
2023-02-08T19:46:52.422Z,-2.12
2023-02-08T19:51:47.184Z,-2.13
2023-02-08T19:54:17.639Z,-2.15
2023-02-08T19:56:45.796Z,-2.17
2023-02-08T19:59:21.929Z,-2.20
2023-02-08T20:01:49.692Z,-2.22
2023-02-08T20:04:16.881Z,-2.21
2023-02-08T20:06:45.306Z,-2.25
2023-02-08T20:09:13.334Z,-2.27
2023-02-08T20:11:55.867Z,-2.28
2023-02-08T20:14:23.840Z,-2.34
2023-02-08T20:16:50.943Z,-2.36
2023-02-08T20:19:18.294Z,-2.35
2023-02-08T20:21:45.581Z,-2.34
2023-02-08T20:24:12.832Z,-2.35
2023-02-08T20:26:42.729Z,-2.37
2023-02-08T20:29:10.629Z,-2.41
2023-02-08T20:31:41.162Z,-2.38
2023-02-08T20:34:11.584Z,-2.46
2023-02-08T20:36:45.114Z,-2.41
2023-02-08T20:39:19.166Z,-2.50
2023-02-08T20:41:47.662Z,-2.53
2023-02-08T20:44:17.313Z,-2.54
2023-02-08T20:46:44.851Z,-2.56
2023-02-08T20:49:15.545Z,-2.55
2023-02-08T20:51:43.569Z,-2.56
2023-02-08T20:54:11.786Z,-2.56
2023-02-08T20:56:39.592Z,-2.56
2023-02-08T20:59:09.194Z,-2.56
2023-02-08T21:01:36.812Z,-2.57
2023-02-08T21:04:05.336Z,-2.62
2023-02-08T21:06:35.034Z,-2.61
2023-02-08T21:09:12.567Z,-2.60
2023-02-08T21:11:39.870Z,-2.62
2023-02-08T21:14:07.987Z,-2.62
2023-02-08T21:16:35.204Z,-2.69
2023-02-08T21:19:02.383Z,-2.70
2023-02-08T21:21:29.576Z,-2.70
2023-02-08T21:23:58.117Z,-2.74
2023-02-08T21:26:26.494Z,-2.76
2023-02-08T21:28:55.632Z,-2.83
2023-02-08T21:31:24.236Z,-2.81
2023-02-08T21:33:52.271Z,-2.87
2023-02-08T21:36:24.504Z,-2.84
2023-02-08T21:38:51.939Z,-2.83
2023-02-08T21:41:21.945Z,-2.82
2023-02-08T21:43:49.976Z,-2.82
2023-02-08T21:46:17.843Z,-2.82
2023-02-08T21:49:04.107Z,-2.81
2023-02-08T21:51:49.671Z,-2.78
2023-02-08T21:54:31.855Z,-2.76
2023-02-08T21:57:00.113Z,-2.75
2023-02-08T21:59:27.780Z,-2.79
2023-02-08T22:01:55.186Z,-2.76
2023-02-08T22:04:22.380Z,-2.76
2023-02-08T22:06:49.553Z,-2.80
2023-02-08T22:09:18.077Z,-2.74
2023-02-08T22:11:45.547Z,-2.74
2023-02-08T22:14:13.780Z,-2.74
2023-02-08T22:16:41.567Z,-2.75
2023-02-08T22:19:09.107Z,-2.76
2023-02-08T22:21:36.317Z,-2.83
2023-02-08T22:24:03.420Z,-2.79
2023-02-08T22:26:30.669Z,-2.79
2023-02-08T22:28:57.797Z,-2.85
2023-02-08T22:31:25.626Z,-2.83
2023-02-08T22:33:53.946Z,-2.89
2023-02-08T22:36:21.481Z,-2.97
2023-02-08T22:38:48.595Z,-2.91
2023-02-08T22:41:17.634Z,-2.86
2023-02-08T22:43:45.449Z,-2.86
2023-02-08T22:46:13.191Z,-2.87
2023-02-08T22:48:40.439Z,-2.92
2023-02-08T22:51:17.381Z,-2.97
2023-02-08T22:53:45.400Z,-2.94
2023-02-08T22:56:16.959Z,-2.95
2023-02-08T22:58:44.435Z,-2.98
2023-02-08T23:01:13.562Z,-2.97
2023-02-08T23:03:40.961Z,-2.96
2023-02-08T23:06:10.082Z,-2.97
2023-02-08T23:08:37.217Z,-3.12
2023-02-08T23:11:06.482Z,-3.02
2023-02-08T23:13:36.015Z,-3.02
2023-02-08T23:16:03.384Z,-3.02
2023-02-08T23:18:30.598Z,-3.03
2023-02-08T23:20:57.724Z,-3.14
2023-02-08T23:23:24.876Z,-3.16
2023-02-08T23:25:51.975Z,-3.14
2023-02-08T23:28:19.149Z,-3.17
2023-02-08T23:30:46.530Z,-3.23
2023-02-08T23:33:13.926Z,-3.23
2023-02-08T23:35:41.972Z,-3.24
2023-02-08T23:38:09.852Z,-3.35
2023-02-08T23:40:37.036Z,-3.30
2023-02-08T23:43:04.418Z,-3.25
2023-02-08T23:45:31.709Z,-3.25
2023-02-08T23:47:58.861Z,-3.29
2023-02-08T23:50:26.553Z,-3.26
2023-02-08T23:52:56.685Z,-3.28
2023-02-08T23:55:24.505Z,-3.34
2023-02-08T23:57:51.592Z,-3.38
